Time;durP1;ratioP1;P1;durP2;ratioP2;P2;SDS_P1;SDS_P2;PMS_P1;PMS_P2;Temp;Humidity;BMP_temperature;BMP_pressure;BME280_temperature;BME280_humidity;BME280_pressure;Samples;Min_cycle;Max_cycle;Signal;HPM_P1;HPM_P2
2022/07/05 00:02:16;;;;;;;;;1.75;1.00;;;;;20.11;46.98;101887.06;5100107;27;45296;-58
2022/07/05 00:04:41;;;;;;;;;2.00;1.00;;;;;20.11;47.05;101887.91;5098531;27;45334;-63
2022/07/05 00:07:19;;;;;;;;;1.50;1.50;;;;;20.12;46.80;101894.97;5099523;27;45406;-61
2022/07/05 00:09:46;;;;;;;;;1.00;1.00;;;;;20.09;47.10;101892.63;5099076;27;46892;-63
2022/07/05 00:12:13;;;;;;;;;0.50;0.50;;;;;20.09;47.38;101883.69;5099223;27;45618;-55
2022/07/05 00:14:39;;;;;;;;;2.25;1.75;;;;;20.08;47.25;101890.94;5099321;27;45393;-47
2022/07/05 00:17:04;;;;;;;;;1.00;1.00;;;;;20.05;47.45;101899.41;5099319;27;45236;-49
2022/07/05 00:19:30;;;;;;;;;1.00;1.00;;;;;20.02;47.48;101894.41;5098900;27;47091;-48
2022/07/05 00:21:55;;;;;;;;;2.00;2.00;;;;;20.01;47.14;101898.09;5099007;27;45442;-46
2022/07/05 00:24:21;;;;;;;;;2.75;2.00;;;;;19.98;47.13;101894.94;5098977;27;45363;-47
2022/07/05 00:26:46;;;;;;;;;1.00;1.00;;;;;19.92;47.12;101891.91;5099266;27;45241;-50
2022/07/05 00:29:12;;;;;;;;;2.00;2.00;;;;;19.95;47.23;101890.72;5098917;27;45441;-57
2022/07/05 00:31:37;;;;;;;;;2.00;1.75;;;;;19.91;47.48;101890.25;5098753;27;45961;-46
2022/07/05 00:34:02;;;;;;;;;2.25;1.00;;;;;19.88;47.65;101896.00;5098945;27;45371;-58
2022/07/05 00:36:28;;;;;;;;;2.00;2.00;;;;;19.82;47.68;101893.19;5099145;27;45467;-48
2022/07/05 00:38:53;;;;;;;;;1.50;1.50;;;;;19.79;47.96;101901.63;5098753;27;46486;-45
2022/07/05 00:41:19;;;;;;;;;2.00;1.25;;;;;19.71;47.97;101888.19;5098544;27;45396;-49
2022/07/05 00:44:08;;;;;;;;;0.75;0.75;;;;;19.69;47.81;101901.88;5098775;27;45512;-47
2022/07/05 00:46:34;;;;;;;;;1.00;1.00;;;;;19.64;47.92;101898.88;5099043;27;45211;-53
2022/07/05 00:49:00;;;;;;;;;1.00;1.00;;;;;19.59;47.93;101899.38;5098415;27;47242;-46
2022/07/05 00:51:29;;;;;;;;;1.75;1.75;;;;;19.52;47.82;101894.88;5098557;27;45287;-46
2022/07/05 00:53:55;;;;;;;;;1.00;1.00;;;;;19.49;48.14;101897.91;5098709;27;45306;-57
2022/07/05 00:56:24;;;;;;;;;2.25;1.00;;;;;19.34;48.08;101884.31;5098846;27;45458;-51
2022/07/05 00:58:49;;;;;;;;;0.50;0.50;;;;;19.38;48.39;101904.53;5098321;27;47570;-45
2022/07/05 01:01:16;;;;;;;;;2.25;1.00;;;;;19.28;48.86;101893.97;5098255;27;45170;-52
2022/07/05 01:03:42;;;;;;;;;1.00;1.00;;;;;19.30;48.92;101896.47;5098777;27;45237;-50
2022/07/05 01:06:10;;;;;;;;;1.50;1.50;;;;;19.24;48.77;101894.50;5098527;27;45549;-48
2022/07/05 01:08:39;;;;;;;;;3.75;1.00;;;;;19.20;48.93;101897.53;5098082;27;45434;-48
2022/07/05 01:11:06;;;;;;;;;1.00;1.00;;;;;19.19;49.14;101897.72;5098067;27;45282;-47
2022/07/05 01:13:31;;;;;;;;;1.00;1.00;;;;;19.16;49.32;101887.28;5098174;27;45463;-48
2022/07/05 01:15:58;;;;;;;;;1.75;1.75;;;;;19.15;49.48;101894.53;5097164;27;45245;-45
2022/07/05 01:18:24;;;;;;;;;4.00;1.00;;;;;19.12;49.31;101892.19;5098120;27;46053;-51
2022/07/05 01:20:50;;;;;;;;;1.00;1.00;;;;;19.01;49.88;101868.31;5097927;27;45483;-58
2022/07/05 01:23:19;;;;;;;;;0.00;0.00;;;;;19.10;49.59;101888.84;5098114;27;45320;-50
2022/07/05 01:25:47;;;;;;;;;2.00;0.00;;;;;19.09;49.91;101900.63;5098199;27;45510;-47
2022/07/05 01:28:12;;;;;;;;;1.00;1.00;;;;;19.07;49.80;101886.47;5097693;27;46041;-46
2022/07/05 01:30:39;;;;;;;;;1.00;1.00;;;;;19.06;50.09;101886.66;5097873;27;45345;-50
2022/07/05 01:33:06;;;;;;;;;3.00;1.00;;;;;19.03;49.92;101884.31;5098078;27;45384;-49
2022/07/05 01:35:32;;;;;;;;;2.00;0.00;;;;;18.98;50.14;101879.44;5098116;27;45362;-53
2022/07/05 01:37:58;;;;;;;;;1.00;1.00;;;;;18.94;50.30;101880.78;5097788;27;46284;-47
2022/07/05 01:40:23;;;;;;;;;2.25;1.00;;;;;18.91;50.49;101887.38;5097551;27;45471;-51
2022/07/05 01:42:50;;;;;;;;;3.00;1.00;;;;;18.91;50.05;101887.38;5098110;27;45302;-54
2022/07/05 01:48:01;;;;;;;;;1.50;1.00;;;;;18.83;50.06;101879.31;5097622;27;45325;-48
2022/07/05 01:50:31;;;;;;;;;1.00;1.00;;;;;18.81;49.82;101885.91;5097783;27;45315;-61
2022/07/05 01:53:00;;;;;;;;;1.00;1.00;;;;;18.76;50.25;101882.88;5097979;27;45427;-52
2022/07/05 01:55:26;;;;;;;;;1.00;1.00;;;;;18.76;50.63;101893.66;5098186;27;45332;-50
2022/07/05 01:57:51;;;;;;;;;1.00;1.00;;;;;18.71;50.38;101883.41;5097879;27;45919;-61
2022/07/05 02:00:17;;;;;;;;;0.33;0.33;;;;;18.69;50.21;101891.66;5097777;27;45382;-63
2022/07/05 02:02:42;;;;;;;;;1.00;1.00;;;;;18.67;50.39;101882.88;5097679;27;45622;-61
2022/07/05 02:05:08;;;;;;;;;1.00;1.00;;;;;18.59;49.96;101882.91;5097969;27;45319;-48
2022/07/05 02:07:33;;;;;;;;;1.67;1.00;;;;;18.59;50.51;101885.59;5097381;27;46457;-48
2022/07/05 02:09:58;;;;;;;;;2.00;0.33;;;;;18.55;50.49;101886.94;5097421;27;45302;-49
2022/07/05 02:12:24;;;;;;;;;1.00;1.00;;;;;18.54;50.51;101879.88;5097573;27;45480;-51
2022/07/05 02:14:49;;;;;;;;;4.33;1.67;;;;;18.53;50.76;101891.66;5097463;27;45412;-64
2022/07/05 02:17:14;;;;;;;;;0.67;0.67;;;;;18.51;51.56;101891.00;5097518;27;46042;-57
2022/07/05 02:19:40;;;;;;;;;3.00;1.00;;;;;18.47;51.89;101889.66;5097662;27;45405;-49
2022/07/05 02:22:06;;;;;;;;;5.00;3.00;;;;;18.40;52.54;101878.69;5097194;27;45311;-49
2022/07/05 02:24:32;;;;;;;;;3.00;2.00;;;;;18.36;53.23;101890.81;5097407;27;45249;-51
2022/07/05 02:26:59;;;;;;;;;4.00;1.67;;;;;18.31;53.55;101885.13;5097624;27;46265;-50
2022/07/05 02:29:24;;;;;;;;;2.00;2.00;;;;;18.28;53.97;101890.81;5100555;27;45435;-50
2022/07/05 02:31:49;;;;;;;;;2.33;1.00;;;;;18.24;54.48;101891.34;5100597;27;45304;-54
2022/07/05 02:34:15;;;;;;;;;2.33;2.33;;;;;18.25;54.57;101890.34;5101019;27;45221;-63
2022/07/05 02:36:40;;;;;;;;;3.33;2.00;;;;;18.18;54.42;101882.09;5100774;27;45255;-53
2022/07/05 02:39:06;;;;;;;;;1.00;1.00;;;;;18.24;53.86;101892.19;5100519;27;45286;-48
2022/07/05 02:41:31;;;;;;;;;2.67;2.00;;;;;18.23;54.94;101892.34;5100847;27;45370;-48
2022/07/05 02:43:56;;;;;;;;;4.67;2.00;;;;;18.23;54.89;101889.66;5116544;27;45679;-59
2022/07/05 02:46:22;;;;;;;;;1.67;1.67;;;;;18.22;54.04;101882.59;5100477;27;45562;-60
2022/07/05 02:48:47;;;;;;;;;2.33;1.00;;;;;18.18;55.31;101888.31;5100834;27;45434;-57
2022/07/05 02:51:16;;;;;;;;;7.33;2.00;;;;;18.17;55.77;101896.56;5101022;27;45563;-65
2022/07/05 02:53:41;;;;;;;;;2.00;2.00;;;;;18.15;55.40;101877.03;5101043;27;45470;-64
2022/07/05 02:56:07;;;;;;;;;5.00;3.00;;;;;18.15;55.23;101890.50;5100377;27;45608;-50
2022/07/05 02:58:32;;;;;;;;;5.00;3.00;;;;;18.09;55.29;101875.88;5100590;27;45362;-60
2022/07/05 03:00:57;;;;;;;;;4.00;2.00;;;;;18.07;56.12;101885.94;5099187;27;45473;-48
2022/07/05 03:03:23;;;;;;;;;3.33;3.00;;;;;18.06;56.05;101883.44;5100594;27;45242;-57
2022/07/05 03:05:49;;;;;;;;;3.67;1.00;;;;;18.03;56.46;101889.97;5116252;27;46448;-61
2022/07/05 03:08:14;;;;;;;;;3.67;2.00;;;;;17.99;56.51;101882.41;5100027;27;45366;-56
2022/07/05 03:10:39;;;;;;;;;2.00;2.00;;;;;17.92;56.93;101882.25;5100218;27;45509;-61
2022/07/05 03:13:05;;;;;;;;;3.00;1.00;;;;;17.91;56.07;101894.88;5100485;27;45266;-50
2022/07/05 03:15:31;;;;;;;;;4.00;2.00;;;;;17.89;56.22;101886.13;5099879;27;45317;-51
2022/07/05 03:17:57;;;;;;;;;1.67;1.67;;;;;17.87;57.09;101885.47;5100228;27;45289;-53
2022/07/05 03:20:22;;;;;;;;;1.67;1.67;;;;;17.74;57.12;101876.13;5100212;27;45390;-65
2022/07/05 03:22:47;;;;;;;;;2.00;2.00;;;;;17.85;57.11;101890.16;5100578;27;45308;-59
2022/07/05 03:25:13;;;;;;;;;4.00;3.00;;;;;17.86;57.50;101890.97;5099789;27;45753;-51
2022/07/05 03:27:38;;;;;;;;;2.00;1.00;;;;;17.86;57.19;101890.97;5099966;27;45347;-52
2022/07/05 03:30:04;;;;;;;;;3.33;2.00;;;;;17.74;56.91;101876.13;5099647;27;45378;-50
2022/07/05 03:32:30;;;;;;;;;3.33;3.00;;;;;17.84;57.29;101893.84;5100109;27;45315;-60
2022/07/05 03:34:55;;;;;;;;;4.33;2.67;;;;;17.83;56.78;101896.72;5099802;27;45358;-62
2022/07/05 03:37:21;;;;;;;;;2.00;2.00;;;;;17.84;56.94;101901.09;5099821;27;45768;-47
2022/07/05 03:39:46;;;;;;;;;5.00;3.00;;;;;17.82;57.41;101903.94;5098854;27;45326;-63
2022/07/05 03:42:12;;;;;;;;;2.33;2.33;;;;;17.80;57.19;101905.97;5100016;27;45375;-58
2022/07/05 03:44:37;;;;;;;;;2.00;2.00;;;;;17.79;57.70;101909.66;5099384;27;46100;-54
2022/07/05 03:47:02;;;;;;;;;4.33;4.33;;;;;17.81;57.61;101914.88;5099528;27;45348;-63
2022/07/05 03:49:28;;;;;;;;;5.67;3.00;;;;;17.80;57.39;101908.66;5099736;27;45300;-64
2022/07/05 03:51:53;;;;;;;;;4.33;3.00;;;;;17.81;57.67;101915.72;5099787;27;45208;-50
2022/07/05 03:54:18;;;;;;;;;4.33;3.67;;;;;17.77;57.42;101908.97;5099234;27;46149;-54
2022/07/05 03:56:44;;;;;;;;;8.33;3.00;;;;;17.81;57.59;101917.56;5099475;27;45432;-58
2022/07/05 03:59:09;;;;;;;;;3.33;3.33;;;;;17.81;57.49;101923.78;5099714;27;45287;-51
2022/07/05 04:01:35;;;;;;;;;3.00;3.00;;;;;17.81;57.59;101921.09;5099602;27;45420;-60
2022/07/05 04:04:00;;;;;;;;;3.67;3.33;;;;;17.80;57.99;101923.97;5099030;27;46063;-63
2022/07/05 04:06:26;;;;;;;;;3.67;3.67;;;;;17.80;57.78;101930.19;5099368;27;45428;-63
2022/07/05 04:08:51;;;;;;;;;4.00;4.00;;;;;17.81;57.41;101925.63;5115204;27;45452;-63
2022/07/05 04:11:16;;;;;;;;;2.00;2.00;;;;;17.83;57.63;101929.03;5099539;27;45349;-51
2022/07/05 04:13:42;;;;;;;;;3.00;3.00;;;;;17.82;57.70;101930.84;5099111;27;46027;-57
2022/07/05 04:16:08;;;;;;;;;4.67;3.33;;;;;17.79;57.18;101933.88;5098732;27;45592;-65
2022/07/05 04:18:34;;;;;;;;;3.00;2.00;;;;;17.78;57.57;101934.91;5099214;27;45381;-60
2022/07/05 04:20:59;;;;;;;;;4.00;2.33;;;;;17.77;57.84;101938.59;5099211;27;45442;-65
2022/07/05 04:23:24;;;;;;;;;3.00;3.00;;;;;17.78;57.75;101936.72;5099573;27;46478;-56
2022/07/05 04:25:50;;;;;;;;;4.00;4.00;;;;;17.66;57.72;101923.56;5097446;27;45329;-64
2022/07/05 04:28:15;;;;;;;;;4.00;2.67;;;;;17.79;57.92;101949.19;5098763;27;45752;-60
2022/07/05 04:30:41;;;;;;;;;3.00;2.00;;;;;17.77;58.18;101943.97;5097582;27;45433;-59
2022/07/05 04:33:06;;;;;;;;;5.00;3.00;;;;;17.75;58.36;101935.22;5098581;27;46127;-52
2022/07/05 04:35:31;;;;;;;;;3.00;3.00;;;;;17.78;58.30;101932.22;5098782;27;45396;-56
2022/07/05 04:37:57;;;;;;;;;4.00;4.00;;;;;17.79;58.33;101933.06;5098742;27;45684;-63
2022/07/05 04:40:22;;;;;;;;;4.33;3.67;;;;;17.73;57.73;101925.59;5098772;27;45358;-63
2022/07/05 04:42:47;;;;;;;;;4.33;2.33;;;;;17.68;58.18;101926.94;5098830;27;45408;-61
2022/07/05 04:45:13;;;;;;;;;5.67;4.00;;;;;17.74;58.18;101928.16;5088370;27;45540;-61
2022/07/05 04:47:38;;;;;;;;;5.00;3.00;;;;;17.80;58.32;101943.66;5090987;27;46747;-63
2022/07/05 04:50:05;;;;;;;;;3.00;3.00;;;;;17.80;58.17;101950.88;5092287;27;45458;-57
2022/07/05 04:52:31;;;;;;;;;3.33;2.00;;;;;17.81;58.14;101947.16;5091949;27;46031;-58
2022/07/05 04:54:56;;;;;;;;;5.00;4.00;;;;;17.80;58.76;101946.34;5092256;27;45476;-51
2022/07/05 04:57:22;;;;;;;;;3.33;3.00;;;;;17.77;58.17;101932.34;5094129;27;45485;-60
2022/07/05 04:59:47;;;;;;;;;4.00;3.33;;;;;17.77;58.31;101933.19;5096414;27;45395;-63
2022/07/05 05:02:13;;;;;;;;;5.00;3.00;;;;;17.84;58.72;101946.84;5095929;27;46601;-60
2022/07/05 05:04:38;;;;;;;;;3.00;3.00;;;;;17.86;58.15;101952.91;5095585;27;45455;-47
2022/07/05 05:07:04;;;;;;;;;7.33;4.00;;;;;17.84;58.06;101945.00;5096554;27;45501;-52
2022/07/05 05:09:29;;;;;;;;;7.33;5.33;;;;;17.89;58.43;101952.56;5096035;27;45440;-59
2022/07/05 05:11:54;;;;;;;;;3.33;3.00;;;;;17.75;58.64;101926.31;5096031;27;46298;-62
2022/07/05 05:14:20;;;;;;;;;6.33;4.33;;;;;17.90;58.39;101951.56;5095947;27;45288;-58
2022/07/05 05:16:45;;;;;;;;;6.33;3.67;;;;;17.87;57.89;101957.31;5095636;27;45511;-64
2022/07/05 05:19:11;;;;;;;;;5.00;4.00;;;;;17.88;58.46;101957.13;5096785;27;45364;-55
2022/07/05 05:21:36;;;;;;;;;4.00;4.00;;;;;17.89;58.51;101961.50;5095330;27;45952;-49
2022/07/05 05:24:02;;;;;;;;;4.00;4.00;;;;;17.91;58.43;101962.19;5095874;27;45326;-63
2022/07/05 05:26:27;;;;;;;;;4.00;4.00;;;;;17.91;58.33;101953.28;5094648;27;45416;-54
2022/07/05 05:28:53;;;;;;;;;4.33;4.33;;;;;17.87;58.67;101954.59;5095283;27;45462;-56
2022/07/05 05:31:19;;;;;;;;;6.33;5.00;;;;;17.92;58.69;101957.63;5095793;27;46404;-59
2022/07/05 05:33:45;;;;;;;;;5.67;5.33;;;;;17.97;58.67;101957.13;5095503;27;45564;-58
2022/07/05 05:36:10;;;;;;;;;6.33;4.00;;;;;17.97;58.48;101959.84;5095751;27;45377;-54
2022/07/05 05:38:36;;;;;;;;;5.67;4.33;;;;;18.00;58.47;101972.97;5096173;27;45413;-60
2022/07/05 05:41:01;;;;;;;;;5.33;4.00;;;;;17.99;59.02;101964.03;5095090;27;46353;-54
2022/07/05 05:43:27;;;;;;;;;8.00;5.00;;;;;17.93;58.84;101954.78;5095390;27;45628;-51
2022/07/05 05:45:52;;;;;;;;;7.33;4.33;;;;;18.08;58.71;101973.00;5095443;27;45425;-52
2022/07/05 05:48:18;;;;;;;;;7.33;4.67;;;;;18.02;58.65;101962.88;5095962;27;45562;-58
2022/07/05 05:50:43;;;;;;;;;6.67;5.00;;;;;18.14;58.56;101981.22;5095763;27;46267;-55
2022/07/05 05:53:09;;;;;;;;;7.33;4.00;;;;;18.18;58.27;101979.88;5095051;27;45437;-55
2022/07/05 05:55:35;;;;;;;;;5.00;5.00;;;;;18.22;58.11;101987.63;5095860;27;45705;-57
2022/07/05 05:58:21;;;;;;;;;6.33;5.33;;;;;18.25;58.29;101985.47;5095693;27;46274;-60
2022/07/05 06:00:52;;;;;;;;;5.67;5.67;;;;;18.31;58.31;101989.31;5093420;27;47138;-53
2022/07/05 06:03:22;;;;;;;;;8.67;5.67;;;;;18.37;57.91;101994.03;5096567;27;45501;-49
2022/07/05 06:05:48;;;;;;;;;5.67;5.00;;;;;18.45;58.13;101989.50;5099007;27;45442;-50
2022/07/05 06:08:13;;;;;;;;;6.00;5.33;;;;;18.54;58.78;101987.66;5099077;27;45429;-51
2022/07/05 06:10:39;;;;;;;;;5.67;5.67;;;;;18.68;58.64;101986.13;5098929;27;46652;-51
2022/07/05 06:13:07;;;;;;;;;7.33;6.00;;;;;18.79;57.49;101993.03;5099266;27;45456;-50
2022/07/05 06:15:33;;;;;;;;;9.00;7.67;;;;;18.88;57.84;101994.75;5098467;27;45520;-49
2022/07/05 06:17:59;;;;;;;;;7.67;6.00;;;;;18.99;57.13;101985.44;5098860;27;45492;-47
2022/07/05 06:20:28;;;;;;;;;6.00;5.00;;;;;19.06;56.75;101986.44;5098888;27;46170;-50
2022/07/05 06:22:54;;;;;;;;;10.00;7.00;;;;;19.12;56.49;101988.44;5098660;27;45371;-53
2022/07/05 06:25:19;;;;;;;;;5.00;5.00;;;;;19.22;56.72;101985.56;5098605;27;45445;-53
2022/07/05 06:27:50;;;;;;;;;8.67;6.00;;;;;19.37;56.48;101991.91;5098826;27;45569;-48
2022/07/05 06:30:20;;;;;;;;;7.00;6.00;;;;;19.48;55.44;101988.84;5098507;27;46097;-50
2022/07/05 06:32:47;;;;;;;;;11.67;5.00;;;;;19.59;55.61;101987.59;5098475;27;45461;-50
2022/07/05 06:35:13;;;;;;;;;10.00;6.00;;;;;19.73;55.06;101984.19;5098886;27;45388;-48
2022/07/05 06:37:47;;;;;;;;;7.00;7.00;;;;;19.87;54.55;101980.72;5098795;27;45432;-54
2022/07/05 06:40:17;;;;;;;;;6.33;5.33;;;;;20.10;53.93;101991.59;5098482;27;45505;-49
2022/07/05 06:42:42;;;;;;;;;8.67;6.33;;;;;20.45;53.07;101992.00;5098421;27;45465;-52
2022/07/05 06:45:09;;;;;;;;;7.33;7.33;;;;;20.82;52.13;101979.53;5098430;27;45572;-50
2022/07/05 06:47:35;;;;;;;;;9.00;6.00;;;;;21.47;50.58;102000.47;5098764;27;45643;-50
2022/07/05 06:50:04;;;;;;;;;5.75;5.00;;;;;22.09;49.29;101994.56;5098020;27;47508;-51
2022/07/05 06:52:31;;;;;;;;;6.75;6.75;;;;;22.71;48.36;101978.66;5098423;27;45509;-52
2022/07/05 06:54:57;;;;;;;;;6.25;6.25;;;;;23.57;46.74;101990.06;5098458;27;45374;-53
2022/07/05 06:57:23;;;;;;;;;8.25;6.00;;;;;24.28;44.51;101992.41;5098431;27;45253;-50
2022/07/05 06:59:49;;;;;;;;;5.50;5.50;;;;;24.98;43.43;101984.66;5098185;27;45641;-53
2022/07/05 07:02:14;;;;;;;;;8.00;8.00;;;;;25.79;41.17;101981.53;5098053;27;45619;-50
2022/07/05 07:04:40;;;;;;;;;8.25;6.75;;;;;26.51;40.95;101988.41;5097863;27;45501;-58
2022/07/05 07:09:49;;;;;;;;;9.00;6.40;;;;;27.95;37.53;101988.94;5098101;27;46347;-54
2022/07/05 07:12:15;;;;;;;;;7.50;5.75;;;;;28.55;36.11;101982.56;5097922;27;45415;-57
2022/07/05 07:14:40;;;;;;;;;9.75;6.00;;;;;29.02;35.29;101983.41;5098396;27;45390;-49
2022/07/05 07:17:06;;;;;;;;;13.50;9.50;;;;;29.56;34.01;101969.50;5097612;27;45425;-50
2022/07/05 07:19:31;;;;;;;;;8.25;6.50;;;;;30.33;32.96;101980.00;5097840;27;46457;-50
2022/07/05 07:21:56;;;;;;;;;9.50;8.00;;;;;31.80;31.23;101980.41;5097847;27;45493;-50
2022/07/05 07:24:22;;;;;;;;;5.75;5.00;;;;;33.74;28.14;101977.09;5098015;27;45427;-51
2022/07/05 07:27:03;;;;;;;;;5.40;5.00;;;;;35.26;26.08;101982.81;5098217;27;45288;-52
2022/07/05 07:29:29;;;;;;;;;7.80;5.20;;;;;36.56;24.54;101977.84;5097516;27;47253;-50
2022/07/05 07:31:59;;;;;;;;;6.20;6.20;;;;;37.62;23.74;101974.94;5097226;27;45545;-60
2022/07/05 07:34:25;;;;;;;;;7.20;5.40;;;;;38.75;21.54;101987.81;5097734;27;45464;-55
2022/07/05 07:36:51;;;;;;;;;5.20;4.60;;;;;39.66;22.30;101974.00;5097837;27;45379;-50
2022/07/05 07:39:16;;;;;;;;;5.75;5.00;;;;;40.32;20.80;101979.91;5097380;27;46095;-54
2022/07/05 07:41:42;;;;;;;;;4.50;4.25;;;;;40.93;19.45;101983.00;5097172;27;45446;-51
2022/07/05 07:44:07;;;;;;;;;6.00;4.50;;;;;41.56;18.95;101986.50;5097157;27;45508;-53
2022/07/05 07:46:33;;;;;;;;;8.00;6.00;;;;;42.14;18.19;101985.13;5097796;27;45481;-52
2022/07/05 07:48:58;;;;;;;;;7.00;4.00;;;;;42.66;17.84;101987.88;5097248;27;45540;-47
2022/07/05 07:51:24;;;;;;;;;5.00;5.00;;;;;43.09;16.77;101992.44;5097294;27;45372;-50
2022/07/05 07:53:49;;;;;;;;;8.00;4.75;;;;;43.35;16.80;101993.09;5096655;27;45394;-50
2022/07/05 07:56:15;;;;;;;;;4.50;4.25;;;;;43.71;16.45;101980.50;5097694;27;45422;-50
2022/07/05 07:58:41;;;;;;;;;7.00;5.60;;;;;44.32;16.83;101991.16;5097568;27;46808;-52
2022/07/05 08:01:10;;;;;;;;;7.50;6.00;;;;;44.67;16.03;101988.78;5097347;27;45415;-52
2022/07/05 08:03:36;;;;;;;;;6.00;4.80;;;;;45.05;15.45;101991.25;5097907;27;45486;-52
2022/07/05 08:06:02;;;;;;;;;6.40;5.20;;;;;45.36;15.05;101994.59;5097912;27;45318;-54
2022/07/05 08:08:27;;;;;;;;;5.50;5.50;;;;;45.65;15.64;101991.50;5097343;27;46958;-51
2022/07/05 08:10:52;;;;;;;;;7.50;6.00;;;;;45.89;15.12;101992.59;5097518;27;45531;-49
2022/07/05 08:13:18;;;;;;;;;6.00;5.75;;;;;46.26;14.32;101988.44;5097272;27;45455;-53
2022/07/05 08:15:43;;;;;;;;;6.25;5.00;;;;;46.54;14.00;101990.38;5097396;27;45391;-48
2022/07/05 08:23:36;;;;;;;;;6.20;5.80;;;;;47.37;13.78;101976.28;5096994;27;45506;-52
2022/07/05 08:26:02;;;;;;;;;5.00;5.00;;;;;47.62;12.65;101986.09;5097092;27;45514;-52
2022/07/05 08:28:28;;;;;;;;;4.00;4.00;;;;;47.90;12.91;101973.78;5097218;27;45439;-56
2022/07/05 08:30:53;;;;;;;;;8.00;4.60;;;;;48.03;13.03;101974.41;5096793;27;45414;-53
2022/07/05 08:33:19;;;;;;;;;5.25;5.00;;;;;48.27;12.25;101971.25;5097375;27;45240;-53
2022/07/05 08:35:44;;;;;;;;;6.75;5.00;;;;;48.70;12.50;101981.28;5097178;27;45411;-50
2022/07/05 08:38:09;;;;;;;;;6.00;4.00;;;;;48.90;12.58;101978.41;5096928;27;45476;-53
2022/07/05 08:40:38;;;;;;;;;5.00;5.00;;;;;48.94;12.37;101982.91;5097834;27;45424;-59
2022/07/05 08:43:06;;;;;;;;;3.00;2.80;;;;;49.14;12.18;101989.28;5096174;27;45564;-50
2022/07/05 08:45:33;;;;;;;;;8.60;5.20;;;;;49.15;11.76;101968.28;5097134;27;45551;-51
2022/07/05 08:48:00;;;;;;;;;6.40;4.00;;;;;49.57;12.22;101975.72;5096689;27;46037;-51
2022/07/05 08:50:27;;;;;;;;;5.60;4.80;;;;;49.96;11.34;101980.22;5096673;27;45403;-52
2022/07/05 08:52:53;;;;;;;;;4.80;4.80;;;;;50.13;10.93;101963.41;5096839;27;45349;-50
2022/07/05 08:55:18;;;;;;;;;6.50;6.50;;;;;50.29;11.44;101970.84;5097214;27;45337;-53
2022/07/05 08:57:44;;;;;;;;;4.25;3.50;;;;;50.60;11.01;101967.50;5096394;27;46144;-55
2022/07/05 09:00:10;;;;;;;;;8.60;5.00;;;;;50.38;10.82;101968.50;5096917;27;45484;-50
2022/07/05 09:02:36;;;;;;;;;6.60;3.80;;;;;50.40;11.51;101971.75;5096201;27;45520;-51
2022/07/05 09:05:02;;;;;;;;;4.00;4.00;;;;;50.26;11.29;101969.63;5097050;27;45492;-52
2022/07/05 09:07:29;;;;;;;;;6.20;4.80;;;;;50.36;10.78;101971.75;5096568;27;46454;-53
2022/07/05 09:09:59;;;;;;;;;4.60;4.60;;;;;50.65;10.68;101978.44;5096531;27;45563;-50
2022/07/05 09:12:25;;;;;;;;;4.00;2.40;;;;;50.78;10.38;101963.97;5096673;27;45409;-49
2022/07/05 09:14:50;;;;;;;;;4.00;4.00;;;;;50.81;10.17;101968.84;5096891;27;46188;-50
2022/07/05 09:17:16;;;;;;;;;4.00;3.00;;;;;50.91;10.51;101965.31;5096289;27;45921;-51
2022/07/05 09:19:42;;;;;;;;;7.00;4.50;;;;;50.87;10.07;101970.94;5096596;27;45288;-49
2022/07/05 09:22:08;;;;;;;;;2.25;2.25;;;;;51.16;10.24;101962.59;5096245;27;45421;-51
2022/07/05 09:24:43;;;;;;;;;2.20;2.00;;;;;51.49;9.94;101966.41;5096767;27;45533;-50
2022/07/05 09:27:08;;;;;;;;;4.00;4.00;;;;;51.74;9.73;101972.97;5096655;27;46517;-52
2022/07/05 09:29:33;;;;;;;;;5.00;4.75;;;;;51.84;9.23;101963.69;5096072;27;45639;-51
2022/07/05 09:31:59;;;;;;;;;3.75;3.75;;;;;51.98;9.78;101976.31;5096333;27;45430;-51
2022/07/05 09:34:25;;;;;;;;;3.50;1.75;;;;;52.12;9.88;101973.47;5096435;27;45147;-52
2022/07/05 09:37:01;;;;;;;;;3.50;3.00;;;;;52.19;9.32;101967.81;5095034;27;45823;-50
2022/07/05 09:39:29;;;;;;;;;2.40;2.20;;;;;52.22;10.36;101977.59;5096240;27;45888;-53
2022/07/05 09:42:11;;;;;;;;;6.00;4.60;;;;;52.12;10.30;101971.44;5096373;27;45432;-50
2022/07/05 09:44:44;;;;;;;;;2.80;2.80;;;;;52.27;9.56;101968.66;5095857;27;45629;-52
2022/07/05 09:47:12;;;;;;;;;4.80;4.80;;;;;52.15;8.83;101952.81;5095830;27;45863;-51
2022/07/05 09:49:40;;;;;;;;;4.20;3.60;;;;;51.88;9.76;101969.38;5096171;27;45260;-51
2022/07/05 09:52:06;;;;;;;;;2.40;2.40;;;;;51.80;9.48;101970.56;5096306;27;45399;-49
2022/07/05 09:54:32;;;;;;;;;5.50;3.75;;;;;51.82;9.65;101971.78;5097525;27;45492;-52
2022/07/05 09:56:57;;;;;;;;;4.25;4.25;;;;;51.75;9.29;101959.59;5097082;27;46187;-51
2022/07/05 09:59:23;;;;;;;;;3.00;2.50;;;;;51.76;10.23;101969.75;5097544;27;45426;-51
2022/07/05 10:01:48;;;;;;;;;3.75;2.00;;;;;51.54;9.99;101974.50;5097292;27;45249;-55
2022/07/05 10:04:14;;;;;;;;;5.00;5.00;;;;;51.40;8.99;101970.41;5097325;27;45358;-60
2022/07/05 10:06:39;;;;;;;;;2.50;2.50;;;;;51.16;9.21;101969.09;5096992;27;46560;-53
2022/07/05 10:09:05;;;;;;;;;3.00;2.75;;;;;51.01;10.21;101963.75;5097234;27;45268;-51
2022/07/05 10:11:31;;;;;;;;;3.40;3.40;;;;;50.63;9.53;101975.19;5098140;27;45266;-52
2022/07/05 10:13:58;;;;;;;;;3.75;2.75;;;;;50.41;10.20;101962.06;5097290;27;45208;-48
2022/07/05 10:16:24;;;;;;;;;3.00;3.00;;;;;50.52;9.86;101970.66;5097733;27;46492;-50
2022/07/05 10:18:55;;;;;;;;;5.00;3.50;;;;;50.43;9.85;101963.28;5097221;27;45521;-50
2022/07/05 10:21:21;;;;;;;;;4.40;4.40;;;;;50.35;10.44;101970.09;5097409;27;45280;-50
2022/07/05 10:23:51;;;;;;;;;3.25;3.25;;;;;50.22;10.25;101976.44;5097993;27;45217;-52
2022/07/05 10:26:16;;;;;;;;;4.40;4.40;;;;;50.18;10.23;101968.72;5097026;27;45331;-53
2022/07/05 10:28:47;;;;;;;;;1.50;1.50;;;;;50.06;9.89;101974.66;5097983;27;45319;-54
2022/07/05 10:31:14;;;;;;;;;3.40;3.40;;;;;49.93;9.86;101979.78;5097037;27;45364;-51
2022/07/05 10:33:40;;;;;;;;;4.60;2.80;;;;;49.80;10.32;101975.56;5097407;27;45380;-48
2022/07/05 10:36:07;;;;;;;;;3.60;3.60;;;;;49.49;10.45;101974.00;5096865;27;47659;-52
2022/07/05 10:38:45;;;;;;;;;5.20;5.00;;;;;49.21;10.21;101975.22;5097267;27;45444;-50
2022/07/05 10:41:25;;;;;;;;;3.20;2.60;;;;;48.47;10.71;101969.22;5097605;27;45453;-54
2022/07/05 10:43:55;;;;;;;;;4.00;3.00;;;;;47.80;10.74;101968.75;5097271;27;45325;-47
2022/07/05 10:46:33;;;;;;;;;4.00;4.00;;;;;46.98;11.71;101962.91;5096822;27;46389;-51
2022/07/05 10:49:15;;;;;;;;;4.20;3.40;;;;;46.13;12.12;101960.72;5098935;27;45362;-59
2022/07/05 10:51:41;;;;;;;;;5.00;5.00;;;;;44.52;12.71;101950.16;5100698;27;45252;-50
2022/07/05 10:54:07;;;;;;;;;4.00;4.00;;;;;42.71;13.76;101968.09;5100791;27;45605;-57
2022/07/05 10:56:32;;;;;;;;;5.50;4.50;;;;;41.19;15.49;101963.56;5100434;27;46106;-56
2022/07/05 10:59:10;;;;;;;;;7.75;5.00;;;;;39.53;16.75;101962.84;5100977;27;45218;-58
2022/07/05 11:01:39;;;;;;;;;5.40;5.40;;;;;38.31;17.79;101957.75;5100498;27;45330;-59
2022/07/05 11:04:04;;;;;;;;;6.40;3.80;;;;;37.17;18.78;101954.19;5100702;27;45473;-51
2022/07/05 11:06:39;;;;;;;;;3.25;3.25;;;;;36.10;19.45;101958.00;5100501;27;45326;-52
2022/07/05 11:09:10;;;;;;;;;3.00;3.00;;;;;35.34;20.09;101960.09;5100470;27;45313;-52
2022/07/05 11:11:38;;;;;;;;;6.00;6.00;;;;;34.70;21.29;101961.69;5100719;27;45469;-52
2022/07/05 11:14:21;;;;;;;;;6.20;5.20;;;;;33.87;22.28;101955.56;5100597;27;45379;-54
2022/07/05 11:17:11;;;;;;;;;5.00;5.00;;;;;33.20;22.85;101951.78;5100032;27;45449;-49
2022/07/05 11:20:05;;;;;;;;;5.00;5.00;;;;;32.72;23.33;101950.97;5099968;27;45297;-47
2022/07/05 11:22:32;;;;;;;;;3.80;3.80;;;;;32.32;23.90;101940.44;5100206;27;45244;-48
2022/07/05 11:24:59;;;;;;;;;6.60;5.20;;;;;32.17;24.28;101954.94;5100210;27;45497;-53
2022/07/05 11:27:24;;;;;;;;;5.80;5.80;;;;;31.91;24.88;101951.13;5099733;27;46309;-48
2022/07/05 11:29:52;;;;;;;;;4.50;4.50;;;;;31.85;25.11;101954.91;5099671;27;45360;-51
2022/07/05 11:32:30;;;;;;;;;4.60;3.00;;;;;31.75;24.70;101955.59;5094275;27;45411;-51
2022/07/05 11:35:12;;;;;;;;;6.80;5.00;;;;;31.59;24.63;101945.53;5096112;27;45437;-48
2022/07/05 11:37:56;;;;;;;;;5.00;5.00;;;;;31.35;24.39;101936.72;5096725;27;45491;-53